createdAt,value
2022-10-24T00:01:12.120Z,2.83
2022-10-24T00:03:39.679Z,3.30
2022-10-24T00:06:08.413Z,2.37
2022-10-24T00:08:35.951Z,2.63
2022-10-24T00:11:03.426Z,2.43
2022-10-24T00:13:30.810Z,2.13
2022-10-24T00:15:58.144Z,2.00
2022-10-24T00:18:25.431Z,1.90
2022-10-24T00:20:52.672Z,1.87
2022-10-24T00:23:19.969Z,2.67
2022-10-24T00:25:47.274Z,2.20
2022-10-24T00:28:14.633Z,2.57
2022-10-24T00:30:41.908Z,2.40
2022-10-24T00:33:09.292Z,2.70
2022-10-24T00:35:36.633Z,2.27
2022-10-24T00:38:03.912Z,3.67
2022-10-24T00:40:31.200Z,2.63
2022-10-24T00:42:58.553Z,2.50
2022-10-24T00:45:32.214Z,3.07
2022-10-24T00:47:59.632Z,2.07
2022-10-24T00:50:26.972Z,2.47
2022-10-24T00:52:54.448Z,2.23
2022-10-24T00:55:22.238Z,2.07
2022-10-24T00:58:01.699Z,2.70
2022-10-24T01:00:31.076Z,16.43
2022-10-24T01:02:59.084Z,21.33
2022-10-24T01:05:28.328Z,6.30
2022-10-24T01:07:58.375Z,2.77
2022-10-24T01:10:40.766Z,2.37
2022-10-24T01:13:23.526Z,2.77
2022-10-24T01:15:56.707Z,1.97
2022-10-24T01:18:34.755Z,2.10
2022-10-24T01:21:16.699Z,1.50
2022-10-24T01:24:16.415Z,1.43
2022-10-24T01:26:43.688Z,1.90
2022-10-24T01:29:29.874Z,1.80
2022-10-24T01:32:04.114Z,2.10
2022-10-24T01:34:34.663Z,2.17
2022-10-24T01:37:04.823Z,1.87
2022-10-24T01:39:34.131Z,1.60
2022-10-24T01:42:03.343Z,1.43
2022-10-24T01:44:36.664Z,1.40
2022-10-24T01:47:09.582Z,1.80
2022-10-24T01:49:38.038Z,1.80
2022-10-24T01:52:08.312Z,2.13
2022-10-24T01:54:36.590Z,1.50
2022-10-24T01:57:05.571Z,1.70
2022-10-24T01:59:32.852Z,1.67
2022-10-24T02:02:00.149Z,1.63
2022-10-24T02:04:29.082Z,1.80
2022-10-24T02:06:57.095Z,1.83
2022-10-24T02:09:24.992Z,1.80
2022-10-24T02:11:53.031Z,1.87
2022-10-24T02:14:24.821Z,1.77
2022-10-24T02:16:52.346Z,1.80
2022-10-24T02:19:19.846Z,1.47
2022-10-24T02:22:12.286Z,1.70
2022-10-24T02:24:59.787Z,1.73
2022-10-24T02:27:31.780Z,1.70
2022-10-24T02:30:01.818Z,1.60
2022-10-24T02:32:40.842Z,1.93
2022-10-24T02:35:09.418Z,1.87
2022-10-24T02:37:40.790Z,1.80
2022-10-24T02:40:11.327Z,1.80
2022-10-24T02:42:39.843Z,1.80
2022-10-24T02:45:10.015Z,1.70
2022-10-24T02:47:38.020Z,1.50
2022-10-24T02:50:05.724Z,1.63
2022-10-24T02:52:33.514Z,1.53
2022-10-24T02:55:00.819Z,1.40
2022-10-24T02:57:28.466Z,1.40
2022-10-24T02:59:55.736Z,1.37
2022-10-24T03:02:23.877Z,1.40
2022-10-24T03:04:51.229Z,1.30
2022-10-24T03:07:18.635Z,1.40
2022-10-24T03:09:45.923Z,1.57
2022-10-24T03:12:16.937Z,1.60
2022-10-24T03:14:44.620Z,1.80
2022-10-24T03:17:12.003Z,1.73
2022-10-24T03:19:39.260Z,1.43
2022-10-24T03:22:06.694Z,1.30
2022-10-24T03:24:43.866Z,1.60
2022-10-24T03:27:21.427Z,1.40
2022-10-24T03:29:48.722Z,1.63
2022-10-24T03:32:16.251Z,1.47
2022-10-24T03:34:43.644Z,1.33
2022-10-24T03:37:11.216Z,1.80
2022-10-24T03:39:38.507Z,1.57
2022-10-24T03:42:05.879Z,1.27
2022-10-24T03:44:33.232Z,1.67
2022-10-24T03:47:00.726Z,1.70
2022-10-24T03:49:28.202Z,1.40
2022-10-24T03:51:55.634Z,1.33
2022-10-24T03:54:22.993Z,1.97
2022-10-24T03:56:50.406Z,1.50
2022-10-24T03:59:17.727Z,2.27
2022-10-24T04:01:45.177Z,1.70
2022-10-24T04:04:12.581Z,1.47
2022-10-24T04:06:40.717Z,1.40
2022-10-24T04:09:08.267Z,1.60
2022-10-24T04:11:35.790Z,1.20
2022-10-24T04:16:35.350Z,1.70
2022-10-24T04:19:02.787Z,1.50
2022-10-24T04:21:30.130Z,3.23
2022-10-24T04:23:57.546Z,1.70
2022-10-24T04:26:24.906Z,1.40
2022-10-24T04:28:52.366Z,1.60
2022-10-24T04:31:22.659Z,2.17
2022-10-24T04:33:51.235Z,1.47
2022-10-24T04:36:18.784Z,1.60
2022-10-24T04:38:46.138Z,1.50
2022-10-24T04:41:13.479Z,1.50
2022-10-24T04:43:41.178Z,1.27
2022-10-24T04:46:08.697Z,1.67
2022-10-24T04:48:36.074Z,1.37
2022-10-24T04:51:03.448Z,1.80
2022-10-24T04:53:30.848Z,1.43
2022-10-24T04:55:58.226Z,1.40
2022-10-24T04:58:25.648Z,1.80
2022-10-24T05:00:53.085Z,1.80
2022-10-24T05:03:20.902Z,2.30
2022-10-24T05:05:48.748Z,2.90
2022-10-24T05:08:18.168Z,3.67
2022-10-24T05:10:45.766Z,4.07
2022-10-24T05:13:13.193Z,4.63
2022-10-24T05:15:40.631Z,5.10
2022-10-24T05:18:08.127Z,5.50
2022-10-24T05:20:35.610Z,6.37
2022-10-24T05:23:03.046Z,5.73
2022-10-24T05:25:30.424Z,5.67
2022-10-24T05:27:57.804Z,5.80
2022-10-24T05:30:25.184Z,6.93
2022-10-24T05:32:52.594Z,6.23
2022-10-24T05:35:19.955Z,5.67
2022-10-24T05:37:47.304Z,5.97
2022-10-24T05:40:14.761Z,5.47
2022-10-24T05:42:42.596Z,5.27
2022-10-24T05:45:11.103Z,5.77
2022-10-24T05:47:38.675Z,4.80
2022-10-24T05:50:06.743Z,9.50
2022-10-24T05:52:36.569Z,7.17
2022-10-24T05:55:08.416Z,6.47
2022-10-24T05:57:36.454Z,6.23
2022-10-24T06:00:04.891Z,5.53
2022-10-24T06:02:32.371Z,6.77
2022-10-24T06:05:00.054Z,5.63
2022-10-24T06:07:27.693Z,6.23
2022-10-24T06:09:55.094Z,5.50
2022-10-24T06:12:22.449Z,5.43
2022-10-24T06:14:49.951Z,5.93
2022-10-24T06:17:17.348Z,6.73
2022-10-24T06:19:45.070Z,6.30
2022-10-24T06:22:12.463Z,6.53
2022-10-24T06:24:40.008Z,7.10
2022-10-24T06:27:07.664Z,9.87
2022-10-24T06:29:35.663Z,9.10
2022-10-24T06:32:03.346Z,10.13
2022-10-24T06:34:30.744Z,6.27
2022-10-24T06:36:58.042Z,10.70
2022-10-24T06:39:25.468Z,8.93
2022-10-24T06:41:52.809Z,5.87
2022-10-24T06:44:20.497Z,8.63
2022-10-24T06:46:47.879Z,5.90
2022-10-24T06:49:17.207Z,8.37
2022-10-24T06:51:44.619Z,10.93
2022-10-24T06:54:12.797Z,5.20
2022-10-24T06:56:40.146Z,5.70
2022-10-24T06:59:11.205Z,4.90
2022-10-24T07:01:38.668Z,4.67
2022-10-24T07:04:06.193Z,3.70
2022-10-24T07:06:33.767Z,4.03
2022-10-24T07:09:01.890Z,3.10
2022-10-24T07:11:29.788Z,3.30
2022-10-24T07:14:00.773Z,2.97
2022-10-24T07:16:29.290Z,3.17
2022-10-24T07:18:56.719Z,2.60
2022-10-24T07:21:25.542Z,2.10
2022-10-24T07:23:53.858Z,2.40
2022-10-24T07:26:21.943Z,2.40
2022-10-24T07:28:53.569Z,3.10
2022-10-24T07:31:25.094Z,2.70
2022-10-24T07:33:53.055Z,2.87
2022-10-24T07:36:21.790Z,2.67
2022-10-24T07:38:49.947Z,2.33
2022-10-24T07:41:17.453Z,2.80
2022-10-24T07:43:45.762Z,2.50
2022-10-24T07:46:14.483Z,3.40
2022-10-24T07:48:42.707Z,3.07
2022-10-24T07:51:12.140Z,3.33
2022-10-24T07:53:39.676Z,3.50
2022-10-24T07:56:09.593Z,3.00
2022-10-24T07:58:37.552Z,3.13
2022-10-24T08:01:08.903Z,3.83
2022-10-24T08:03:36.354Z,4.93
2022-10-24T08:06:07.772Z,3.63
2022-10-24T08:08:38.614Z,3.37
2022-10-24T08:11:13.896Z,3.60
2022-10-24T08:13:41.592Z,5.90
2022-10-24T08:16:09.893Z,4.20
2022-10-24T08:18:39.570Z,3.73
2022-10-24T08:21:08.629Z,8.67
2022-10-24T08:23:36.488Z,4.40
2022-10-24T08:26:07.372Z,4.47
2022-10-24T08:28:37.868Z,4.23
2022-10-24T08:31:06.788Z,3.67
2022-10-24T08:33:34.289Z,2.90
2022-10-24T08:36:02.888Z,2.43
2022-10-24T08:38:30.563Z,2.77
2022-10-24T08:40:58.262Z,2.30
2022-10-24T08:43:25.863Z,1.57
2022-10-24T08:46:05.462Z,1.20
2022-10-24T08:48:38.263Z,1.10
2022-10-24T08:51:28.762Z,0.90
2022-10-24T08:53:57.902Z,0.90
2022-10-24T08:56:29.563Z,1.47
2022-10-24T08:58:57.984Z,1.23
2022-10-24T09:01:45.650Z,2.53
2022-10-24T09:04:15.104Z,1.83
2022-10-24T09:06:42.791Z,1.80
2022-10-24T09:09:10.124Z,2.30
2022-10-24T09:11:41.043Z,2.37
2022-10-24T09:14:13.627Z,3.13
2022-10-24T09:16:42.392Z,2.07
2022-10-24T09:19:13.915Z,1.57
2022-10-24T09:21:42.273Z,1.40
2022-10-24T09:24:21.722Z,1.20
2022-10-24T09:26:49.794Z,1.57
2022-10-24T09:29:17.138Z,1.20
2022-10-24T09:31:44.539Z,1.03
2022-10-24T09:34:12.557Z,1.53
2022-10-24T09:36:40.640Z,1.20
2022-10-24T09:39:24.882Z,0.93
2022-10-24T09:41:52.347Z,0.80
2022-10-24T09:44:31.646Z,0.70
2022-10-24T09:46:59.300Z,1.10
2022-10-24T09:49:31.849Z,0.87
2022-10-24T09:52:20.799Z,1.30
2022-10-24T09:54:48.267Z,0.77
2022-10-24T09:57:18.038Z,0.80
2022-10-24T10:00:11.690Z,0.77
2022-10-24T10:02:39.103Z,0.80
2022-10-24T10:05:07.031Z,0.90
2022-10-24T10:07:37.511Z,1.00
2022-10-24T10:10:07.097Z,0.73
2022-10-24T10:12:37.915Z,0.83
2022-10-24T10:15:18.363Z,0.97
2022-10-24T10:17:53.106Z,0.87
2022-10-24T10:20:29.463Z,0.90
2022-10-24T10:22:56.929Z,0.70
2022-10-24T10:25:31.845Z,0.80
2022-10-24T10:28:02.349Z,0.83
2022-10-24T10:30:32.100Z,0.80
2022-10-24T10:32:59.527Z,0.90
2022-10-24T10:35:33.272Z,1.10
2022-10-24T10:38:06.470Z,0.73
2022-10-24T10:40:35.191Z,0.80
2022-10-24T10:43:02.571Z,0.70
2022-10-24T10:45:32.967Z,0.70
2022-10-24T10:48:07.461Z,0.70
2022-10-24T10:50:34.770Z,0.80
2022-10-24T10:53:09.286Z,1.70
2022-10-24T10:55:43.369Z,1.33
2022-10-24T10:58:23.784Z,1.40
2022-10-24T11:01:06.784Z,1.53
2022-10-24T11:03:37.093Z,1.10
2022-10-24T11:06:13.770Z,0.80
2022-10-24T11:08:51.388Z,1.03
2022-10-24T11:11:38.963Z,1.03
2022-10-24T11:14:09.130Z,0.80
2022-10-24T11:16:39.050Z,0.73
2022-10-24T11:19:12.113Z,0.60
2022-10-24T11:21:40.224Z,0.80
2022-10-24T11:24:09.925Z,0.80
2022-10-24T11:26:43.157Z,0.77
2022-10-24T11:29:15.803Z,0.85
2022-10-24T11:31:46.351Z,1.20
2022-10-24T11:34:22.611Z,0.90
2022-10-24T11:36:56.176Z,1.23
2022-10-24T11:39:37.364Z,0.70
2022-10-24T11:42:20.984Z,0.60
2022-10-24T11:44:48.413Z,0.70
2022-10-24T11:47:15.740Z,0.80
2022-10-24T11:49:46.538Z,0.60
2022-10-24T11:52:13.965Z,0.70
2022-10-24T11:54:59.446Z,0.43
2022-10-24T11:57:28.512Z,1.03
2022-10-24T11:59:56.710Z,1.10
2022-10-24T12:02:42.304Z,0.67
2022-10-24T12:05:28.797Z,0.93
2022-10-24T12:07:56.253Z,0.90
2022-10-24T12:10:23.693Z,0.80
2022-10-24T12:13:07.234Z,1.00
2022-10-24T12:15:46.558Z,0.80
2022-10-24T12:18:24.711Z,0.90
2022-10-24T12:20:52.982Z,0.80
2022-10-24T12:23:23.035Z,0.77
2022-10-24T12:26:02.406Z,0.67
2022-10-24T12:28:29.873Z,1.50
2022-10-24T12:31:09.569Z,1.00
2022-10-24T12:33:36.972Z,1.30
2022-10-24T12:36:04.445Z,1.00
2022-10-24T12:38:31.761Z,0.87
2022-10-24T12:40:59.291Z,1.10
2022-10-24T12:43:28.728Z,1.07
2022-10-24T12:45:56.532Z,1.37
2022-10-24T12:48:26.834Z,1.60
2022-10-24T12:50:59.264Z,1.90
2022-10-24T12:53:37.626Z,2.50
2022-10-24T12:56:10.022Z,2.70
2022-10-24T12:58:38.434Z,3.23
2022-10-24T13:01:27.493Z,3.00
2022-10-24T13:03:55.021Z,3.20
2022-10-24T13:06:34.408Z,3.20
2022-10-24T13:09:01.700Z,2.10
2022-10-24T13:12:01.459Z,1.40
2022-10-24T13:14:36.540Z,1.60
2022-10-24T13:17:03.905Z,1.37
2022-10-24T13:19:32.570Z,1.43
2022-10-24T13:22:00.444Z,1.00
2022-10-24T13:24:35.722Z,1.10
2022-10-24T13:27:12.944Z,1.30
2022-10-24T13:29:41.440Z,1.37
2022-10-24T13:32:08.855Z,1.30
2022-10-24T13:34:52.568Z,1.00
2022-10-24T13:37:35.004Z,1.00
2022-10-24T13:40:14.138Z,1.00
2022-10-24T13:42:43.016Z,1.03
2022-10-24T13:45:23.956Z,1.00
2022-10-24T13:47:55.346Z,1.00
2022-10-24T13:50:23.985Z,0.90
2022-10-24T13:52:57.946Z,1.05
2022-10-24T13:55:28.537Z,0.60
2022-10-24T13:57:59.985Z,0.60
2022-10-24T14:00:28.812Z,0.73
2022-10-24T14:02:58.124Z,0.85
2022-10-24T14:05:36.230Z,0.80
2022-10-24T14:08:04.113Z,0.88
2022-10-24T14:10:32.112Z,0.73
2022-10-24T14:13:00.485Z,0.80
2022-10-24T14:15:29.215Z,0.70
2022-10-24T14:17:58.553Z,0.67
2022-10-24T14:20:27.995Z,0.93
2022-10-24T14:22:55.593Z,0.60
2022-10-24T14:25:24.178Z,0.70
2022-10-24T14:27:52.630Z,0.70
2022-10-24T14:30:21.414Z,0.63
2022-10-24T14:32:48.792Z,0.77
2022-10-24T14:35:16.452Z,0.80
2022-10-24T14:37:44.309Z,0.80
2022-10-24T14:40:20.733Z,0.73
2022-10-24T14:42:48.890Z,0.70
2022-10-24T14:45:23.122Z,0.87
2022-10-24T14:47:55.022Z,0.80
2022-10-24T14:50:36.217Z,1.25
2022-10-24T14:53:04.575Z,1.00
2022-10-24T14:55:32.303Z,1.00
2022-10-24T14:57:59.841Z,5.55
2022-10-24T15:00:28.716Z,1.40
2022-10-24T15:02:58.474Z,1.50
2022-10-24T15:05:28.675Z,1.10
2022-10-24T15:08:20.488Z,1.00
2022-10-24T15:10:46.742Z,0.70
2022-10-24T15:13:16.130Z,0.90
2022-10-24T15:15:44.532Z,0.85
2022-10-24T15:18:27.212Z,1.10
2022-10-24T15:21:00.054Z,0.90
2022-10-24T15:23:29.125Z,0.77
2022-10-24T15:26:23.965Z,0.75
2022-10-24T15:29:08.142Z,1.73
2022-10-24T15:31:37.762Z,1.70
2022-10-24T15:34:07.662Z,1.40
2022-10-24T15:36:36.828Z,1.40
2022-10-24T15:39:07.184Z,1.58
2022-10-24T15:41:34.587Z,1.83
2022-10-24T15:44:02.213Z,2.05
2022-10-24T15:46:30.561Z,1.73
2022-10-24T15:48:57.966Z,2.10
2022-10-24T15:51:25.776Z,1.10
2022-10-24T15:53:54.265Z,0.80
2022-10-24T15:56:21.733Z,0.93
2022-10-24T15:58:50.994Z,1.10
2022-10-24T16:01:27.947Z,0.90
2022-10-24T16:03:55.486Z,1.00
2022-10-24T16:06:23.011Z,0.90
2022-10-24T16:08:50.683Z,0.83
2022-10-24T16:11:18.451Z,0.73
2022-10-24T16:13:45.992Z,0.63
2022-10-24T16:16:13.414Z,0.70
2022-10-24T16:18:40.815Z,0.73
2022-10-24T16:21:08.500Z,0.90
2022-10-24T16:23:36.021Z,0.60
2022-10-24T16:26:03.410Z,0.73
2022-10-24T16:28:30.757Z,0.70
2022-10-24T16:30:58.093Z,0.90
2022-10-24T16:33:25.505Z,0.63
2022-10-24T16:35:52.848Z,0.63
2022-10-24T16:38:20.206Z,0.70
2022-10-24T16:40:50.816Z,1.00
2022-10-24T16:43:19.600Z,1.03
2022-10-24T16:45:56.893Z,1.30
2022-10-24T16:48:24.284Z,2.10
2022-10-24T16:50:51.703Z,2.10
2022-10-24T16:53:19.242Z,2.90
2022-10-24T16:55:50.108Z,2.30
2022-10-24T16:58:17.756Z,2.60
2022-10-24T17:00:47.754Z,3.10
2022-10-24T17:03:15.125Z,2.90
2022-10-24T17:05:49.211Z,2.60
2022-10-24T17:08:16.665Z,2.57
2022-10-24T17:10:44.066Z,2.83
2022-10-24T17:13:11.472Z,2.33
2022-10-24T17:15:39.563Z,2.57
2022-10-24T17:18:07.576Z,2.00
2022-10-24T17:20:34.916Z,1.57
2022-10-24T17:23:04.389Z,1.60
2022-10-24T17:25:33.897Z,1.23
2022-10-24T17:28:01.345Z,1.50
2022-10-24T17:30:32.715Z,0.93
2022-10-24T17:33:00.889Z,0.90
2022-10-24T17:35:28.360Z,0.80
2022-10-24T17:38:01.456Z,0.93
2022-10-24T17:40:30.719Z,0.60
2022-10-24T17:42:58.234Z,0.70
2022-10-24T17:45:26.101Z,0.70
2022-10-24T17:47:53.541Z,0.60
2022-10-24T17:50:20.866Z,0.50
2022-10-24T17:52:52.272Z,0.50
2022-10-24T17:58:11.195Z,0.60
2022-10-24T18:00:38.822Z,0.67
2022-10-24T18:03:08.703Z,0.77
2022-10-24T18:05:38.503Z,0.40
2022-10-24T18:08:06.990Z,0.90
2022-10-24T18:10:34.517Z,0.70
2022-10-24T18:13:02.062Z,0.67
2022-10-24T18:15:29.487Z,0.70
2022-10-24T18:17:56.814Z,0.57
2022-10-24T18:20:24.183Z,0.80
2022-10-24T18:22:51.993Z,0.67
2022-10-24T18:25:22.817Z,0.70
2022-10-24T18:27:50.905Z,0.77
2022-10-24T18:30:19.576Z,0.93
2022-10-24T18:32:50.280Z,0.83
2022-10-24T18:35:17.902Z,0.70
2022-10-24T18:37:45.287Z,0.70
2022-10-24T18:40:13.160Z,0.73
2022-10-24T18:42:51.148Z,0.87
2022-10-24T18:45:22.964Z,1.20
2022-10-24T18:47:51.047Z,1.07
2022-10-24T18:50:22.784Z,1.00
2022-10-24T18:52:56.093Z,0.77
2022-10-24T18:55:24.910Z,0.87
2022-10-24T18:57:52.597Z,0.70
2022-10-24T19:00:21.604Z,0.73
2022-10-24T19:02:49.357Z,0.83
2022-10-24T19:05:19.904Z,0.90
2022-10-24T19:07:48.127Z,0.90
2022-10-24T19:10:17.212Z,0.90
2022-10-24T19:12:44.931Z,1.10
2022-10-24T19:15:12.845Z,0.90
2022-10-24T19:17:40.380Z,0.80
2022-10-24T19:20:08.528Z,0.60
2022-10-24T19:22:36.026Z,0.70
2022-10-24T19:25:03.468Z,0.60
2022-10-24T19:27:30.829Z,0.90
2022-10-24T19:29:58.166Z,0.70
2022-10-24T19:32:25.508Z,1.00
2022-10-24T19:34:53.284Z,0.57
2022-10-24T19:37:20.670Z,0.50
2022-10-24T19:39:48.470Z,0.80
2022-10-24T19:42:15.888Z,0.80
2022-10-24T19:47:16.403Z,0.50
2022-10-24T19:49:43.753Z,0.70
2022-10-24T19:52:12.082Z,0.63
2022-10-24T19:54:39.554Z,0.50
2022-10-24T19:57:06.928Z,0.70
2022-10-24T19:59:36.074Z,0.50
2022-10-24T20:02:04.265Z,0.60
2022-10-24T20:04:31.722Z,0.50
2022-10-24T20:06:59.050Z,0.40
2022-10-24T20:09:26.549Z,0.60
2022-10-24T20:11:53.944Z,0.53
2022-10-24T20:14:24.563Z,0.50
2022-10-24T20:16:54.916Z,0.80
2022-10-24T20:19:22.332Z,0.50
2022-10-24T20:21:49.764Z,0.40
2022-10-24T20:24:17.085Z,0.50
2022-10-24T20:26:44.454Z,0.60
2022-10-24T20:29:15.267Z,0.60
2022-10-24T20:31:46.942Z,0.83
2022-10-24T20:34:14.868Z,0.90
2022-10-24T20:36:44.734Z,1.03
2022-10-24T20:39:13.629Z,0.83
2022-10-24T20:41:42.329Z,0.77
2022-10-24T20:44:09.986Z,0.77
2022-10-24T20:46:37.528Z,0.93
2022-10-24T20:49:05.249Z,0.90
2022-10-24T20:51:32.665Z,0.87
2022-10-24T20:54:00.060Z,0.90
2022-10-24T20:56:27.452Z,1.03
2022-10-24T20:58:55.987Z,1.10
2022-10-24T21:01:27.950Z,1.60
2022-10-24T21:03:56.127Z,1.77
2022-10-24T21:06:27.589Z,2.10
2022-10-24T21:08:59.008Z,2.00
2022-10-24T21:11:28.373Z,1.80
2022-10-24T21:14:06.219Z,1.40
2022-10-24T21:16:34.494Z,1.47
2022-10-24T21:19:01.913Z,1.23
2022-10-24T21:21:29.325Z,1.63
2022-10-24T21:24:02.319Z,1.03
2022-10-24T21:26:33.104Z,1.37
2022-10-24T21:29:14.546Z,0.93
2022-10-24T21:31:49.045Z,1.00
2022-10-24T21:34:16.413Z,1.00
2022-10-24T21:36:43.785Z,0.90
2022-10-24T21:39:15.307Z,0.90
2022-10-24T21:41:42.749Z,0.90
2022-10-24T21:44:10.291Z,1.20
2022-10-24T21:46:37.637Z,1.03
2022-10-24T21:49:04.982Z,1.00
2022-10-24T21:51:33.822Z,1.10
2022-10-24T21:54:03.304Z,0.80
2022-10-24T21:56:31.914Z,0.90
2022-10-24T22:01:30.394Z,0.90
2022-10-24T22:03:58.882Z,0.90
2022-10-24T22:06:26.963Z,1.10
2022-10-24T22:08:58.327Z,0.90
2022-10-24T22:11:27.475Z,1.20
2022-10-24T22:13:54.925Z,1.03
2022-10-24T22:16:23.492Z,1.13
2022-10-24T22:18:51.258Z,1.00
2022-10-24T22:21:18.609Z,1.17
2022-10-24T22:23:45.847Z,1.20
2022-10-24T22:26:14.338Z,1.33
2022-10-24T22:28:42.190Z,1.23
2022-10-24T22:31:10.754Z,1.30
2022-10-24T22:33:39.183Z,0.90
2022-10-24T22:36:22.064Z,1.30
2022-10-24T22:38:52.345Z,0.90
2022-10-24T22:41:19.891Z,1.00
2022-10-24T22:43:47.333Z,1.00
2022-10-24T22:46:26.620Z,1.20
2022-10-24T22:48:58.010Z,1.30
2022-10-24T22:51:25.528Z,1.00
2022-10-24T22:53:53.130Z,0.80
2022-10-24T22:56:33.378Z,0.80
2022-10-24T22:59:01.699Z,0.93
2022-10-24T23:01:35.314Z,0.87
2022-10-24T23:04:06.186Z,1.13
2022-10-24T23:06:52.228Z,1.30
2022-10-24T23:09:19.673Z,1.20
2022-10-24T23:11:47.194Z,1.13
2022-10-24T23:17:00.550Z,0.97
2022-10-24T23:19:31.624Z,1.00
2022-10-24T23:22:03.164Z,1.10
2022-10-24T23:24:30.599Z,0.90
2022-10-24T23:27:12.788Z,0.80
2022-10-24T23:29:44.816Z,1.00
2022-10-24T23:32:23.572Z,0.73
2022-10-24T23:34:51.555Z,0.80
2022-10-24T23:37:31.893Z,0.70
2022-10-24T23:40:03.169Z,0.70
2022-10-24T23:42:30.699Z,0.90
2022-10-24T23:45:00.902Z,0.70
2022-10-24T23:47:42.665Z,0.80
2022-10-24T23:50:15.368Z,0.93
2022-10-24T23:53:08.784Z,0.90
2022-10-24T23:55:36.258Z,1.00
2022-10-24T23:58:03.540Z,0.80
